createdAt,value
2018-12-11T00:00:03.292Z,17.82
2018-12-11T00:01:48.381Z,17.86
2018-12-11T00:02:48.957Z,17.76
2018-12-11T00:03:49.533Z,17.72
2018-12-11T00:04:50.110Z,17.72
2018-12-11T00:05:50.683Z,17.76
2018-12-11T00:06:51.258Z,17.72
2018-12-11T00:07:51.833Z,17.71
2018-12-11T00:08:52.412Z,17.68
2018-12-11T00:09:53.032Z,17.72
2018-12-11T00:10:53.607Z,17.68
2018-12-11T00:11:54.182Z,17.65
2018-12-11T00:12:54.805Z,17.65
2018-12-11T00:13:55.381Z,17.67
2018-12-11T00:14:56.008Z,17.67
2018-12-11T00:15:56.586Z,17.70
2018-12-11T00:16:57.156Z,17.70
2018-12-11T00:17:57.731Z,17.72
2018-12-11T00:18:58.303Z,17.65
2018-12-11T00:19:58.878Z,17.67
2018-12-11T00:20:59.453Z,17.68
2018-12-11T00:22:00.028Z,17.68
2018-12-11T00:23:45.172Z,17.65
2018-12-11T00:24:45.741Z,17.67
2018-12-11T00:25:46.315Z,17.57
2018-12-11T00:26:46.890Z,17.67
2018-12-11T00:27:47.465Z,17.60
2018-12-11T00:28:48.088Z,17.52
2018-12-11T00:29:48.712Z,17.56
2018-12-11T00:30:49.490Z,17.56
2018-12-11T00:31:50.062Z,17.57
2018-12-11T00:32:50.736Z,17.57
2018-12-11T00:33:51.313Z,17.57
2018-12-11T00:34:51.887Z,17.59
2018-12-11T00:35:52.462Z,17.59
2018-12-11T00:36:53.037Z,17.56
2018-12-11T00:37:53.611Z,17.57
2018-12-11T00:38:54.287Z,17.56
2018-12-11T00:39:54.862Z,17.56
2018-12-11T00:40:55.438Z,17.63
2018-12-11T00:41:56.057Z,17.56
2018-12-11T00:42:56.630Z,17.51
2018-12-11T00:43:57.213Z,17.51
2018-12-11T00:45:42.345Z,17.52
2018-12-11T00:46:42.920Z,17.51
2018-12-11T00:47:43.546Z,17.56
2018-12-11T00:48:44.121Z,17.48
2018-12-11T00:49:44.694Z,17.46
2018-12-11T00:50:45.319Z,17.41
2018-12-11T00:51:45.895Z,17.48
2018-12-11T00:52:46.472Z,17.42
2018-12-11T00:53:47.048Z,17.44
2018-12-11T00:54:47.623Z,17.45
2018-12-11T00:55:48.199Z,17.38
2018-12-11T00:56:48.773Z,17.45
2018-12-11T00:57:49.399Z,17.44
2018-12-11T00:58:49.973Z,17.46
2018-12-11T00:59:50.546Z,17.46
2018-12-11T01:00:51.171Z,17.49
2018-12-11T01:01:51.745Z,17.46
2018-12-11T01:02:52.326Z,17.45
2018-12-11T01:03:52.896Z,17.42
2018-12-11T01:04:53.472Z,17.48
2018-12-11T01:05:54.047Z,17.48
2018-12-11T01:07:39.185Z,17.45
2018-12-11T01:08:39.812Z,17.38
2018-12-11T01:09:40.387Z,17.42
2018-12-11T01:10:40.961Z,17.42
2018-12-11T01:11:41.539Z,17.34
2018-12-11T01:12:42.111Z,17.42
2018-12-11T01:13:42.686Z,17.30
2018-12-11T01:14:43.314Z,17.33
2018-12-11T01:15:43.846Z,17.29
2018-12-11T01:16:44.469Z,17.31
2018-12-11T01:17:45.043Z,17.27
2018-12-11T01:18:45.618Z,17.29
2018-12-11T01:19:46.197Z,17.29
2018-12-11T01:20:46.772Z,17.34
2018-12-11T01:21:47.382Z,17.31
2018-12-11T01:22:47.966Z,17.27
2018-12-11T01:23:48.542Z,17.29
2018-12-11T01:24:49.171Z,17.34
2018-12-11T01:25:49.946Z,17.29
2018-12-11T01:26:50.519Z,17.42
2018-12-11T01:27:51.096Z,17.33
2018-12-11T01:29:36.185Z,17.27
2018-12-11T01:30:36.764Z,17.29
2018-12-11T01:31:37.337Z,17.33
2018-12-11T01:32:37.913Z,17.36
2018-12-11T01:33:38.487Z,17.46
2018-12-11T01:34:39.064Z,17.31
2018-12-11T01:35:39.728Z,17.36
2018-12-11T01:36:40.308Z,17.36
2018-12-11T01:37:40.876Z,17.36
2018-12-11T01:38:41.450Z,17.29
2018-12-11T01:39:42.024Z,17.39
2018-12-11T01:40:42.598Z,17.27
2018-12-11T01:41:43.221Z,17.31
2018-12-11T01:42:43.797Z,17.39
2018-12-11T01:43:44.373Z,17.31
2018-12-11T01:44:44.948Z,17.31
2018-12-11T01:45:45.523Z,17.36
2018-12-11T01:46:46.095Z,17.30
2018-12-11T01:47:46.671Z,17.33
2018-12-11T01:48:47.247Z,17.30
2018-12-11T01:49:47.822Z,17.27
2018-12-11T01:51:33.010Z,17.19
2018-12-11T01:52:33.586Z,17.26
2018-12-11T01:53:34.161Z,17.20
2018-12-11T01:54:34.735Z,17.29
2018-12-11T01:55:35.308Z,17.29
2018-12-11T01:56:35.884Z,17.23
2018-12-11T01:57:36.458Z,17.14
2018-12-11T01:58:37.033Z,17.23
2018-12-11T01:59:37.657Z,17.15
2018-12-11T02:00:38.231Z,17.11
2018-12-11T02:01:38.806Z,17.09
2018-12-11T02:02:39.380Z,17.24
2018-12-11T02:03:39.967Z,17.31
2018-12-11T02:04:40.533Z,17.12
2018-12-11T02:05:41.106Z,17.24
2018-12-11T02:06:41.713Z,17.09
2018-12-11T02:07:42.293Z,17.16
2018-12-11T02:08:42.915Z,17.27
2018-12-11T02:09:43.492Z,17.19
2018-12-11T02:10:44.115Z,17.29
2018-12-11T02:11:44.688Z,17.23
2018-12-11T02:13:29.777Z,17.20
2018-12-11T02:14:30.353Z,17.16
2018-12-11T02:15:30.929Z,17.15
2018-12-11T02:16:31.556Z,17.16
2018-12-11T02:17:32.129Z,17.09
2018-12-11T02:18:32.703Z,17.12
2018-12-11T02:19:33.275Z,17.05
2018-12-11T02:20:33.851Z,17.02
2018-12-11T02:21:34.423Z,17.11
2018-12-11T02:22:35.007Z,17.06
2018-12-11T02:23:35.571Z,17.09
2018-12-11T02:24:36.144Z,17.09
2018-12-11T02:25:36.768Z,17.08
2018-12-11T02:26:37.364Z,17.02
2018-12-11T02:27:37.964Z,17.02
2018-12-11T02:28:38.589Z,17.05
2018-12-11T02:29:39.162Z,17.11
2018-12-11T02:30:39.736Z,17.09
2018-12-11T02:31:40.319Z,17.05
2018-12-11T02:32:40.936Z,17.01
2018-12-11T02:33:41.514Z,17.05
2018-12-11T02:35:26.603Z,16.99
2018-12-11T02:36:27.178Z,16.99
2018-12-11T02:37:27.754Z,16.99
2018-12-11T02:38:28.339Z,16.97
2018-12-11T02:39:28.943Z,16.99
2018-12-11T02:40:29.519Z,16.97
2018-12-11T02:41:30.090Z,17.05
2018-12-11T02:42:30.673Z,17.08
2018-12-11T02:43:31.242Z,16.99
2018-12-11T02:44:31.817Z,17.01
2018-12-11T02:45:32.391Z,17.08
2018-12-11T02:46:33.015Z,17.04
2018-12-11T02:47:33.591Z,17.04
2018-12-11T02:48:34.168Z,17.04
2018-12-11T02:49:34.835Z,16.99
2018-12-11T02:50:35.460Z,16.99
2018-12-11T02:51:36.034Z,16.93
2018-12-11T02:52:36.612Z,16.94
2018-12-11T02:53:37.184Z,17.02
2018-12-11T02:54:37.759Z,16.93
2018-12-11T02:55:38.335Z,17.02
2018-12-11T02:57:23.431Z,16.90
2018-12-11T02:58:24.000Z,16.90
2018-12-11T02:59:24.575Z,16.90
2018-12-11T03:00:25.150Z,16.89
2018-12-11T03:01:25.725Z,16.96
2018-12-11T03:02:26.345Z,16.87
2018-12-11T03:03:26.915Z,16.87
2018-12-11T03:04:27.491Z,16.97
2018-12-11T03:05:28.112Z,16.87
2018-12-11T03:06:28.737Z,16.94
2018-12-11T03:07:29.315Z,16.96
2018-12-11T03:08:29.885Z,16.99
2018-12-11T03:09:30.614Z,16.93
2018-12-11T03:10:31.188Z,16.91
2018-12-11T03:11:31.759Z,16.91
2018-12-11T03:12:32.334Z,16.84
2018-12-11T03:13:32.909Z,16.86
2018-12-11T03:14:33.483Z,16.86
2018-12-11T03:15:34.058Z,16.87
2018-12-11T03:16:34.633Z,16.86
2018-12-11T03:17:35.210Z,16.86
2018-12-11T03:19:20.338Z,16.87
2018-12-11T03:20:20.914Z,16.90
2018-12-11T03:21:21.490Z,16.90
2018-12-11T03:22:22.064Z,16.89
2018-12-11T03:23:22.635Z,16.90
2018-12-11T03:24:23.261Z,16.93
2018-12-11T03:25:23.884Z,16.89
2018-12-11T03:26:24.459Z,16.81
2018-12-11T03:27:25.085Z,16.91
2018-12-11T03:28:25.658Z,16.89
2018-12-11T03:29:26.234Z,16.83
2018-12-11T03:30:26.807Z,16.89
2018-12-11T03:31:27.389Z,16.81
2018-12-11T03:32:27.957Z,16.78
2018-12-11T03:33:28.572Z,16.74
2018-12-11T03:34:29.146Z,16.87
2018-12-11T03:35:29.724Z,16.84
2018-12-11T03:36:30.341Z,16.86
2018-12-11T03:37:30.917Z,16.78
2018-12-11T03:38:31.493Z,16.83
2018-12-11T03:39:32.068Z,16.72
2018-12-11T03:41:17.160Z,16.72
2018-12-11T03:42:17.777Z,16.79
2018-12-11T03:43:18.401Z,16.71
2018-12-11T03:44:19.029Z,16.83
2018-12-11T03:45:19.599Z,16.76
2018-12-11T03:46:20.173Z,16.69
2018-12-11T03:47:20.749Z,16.78
2018-12-11T03:48:21.324Z,16.69
2018-12-11T03:49:21.896Z,16.79
2018-12-11T03:50:22.472Z,16.79
2018-12-11T03:51:23.047Z,16.75
2018-12-11T03:52:23.670Z,16.75
2018-12-11T03:53:24.245Z,16.71
2018-12-11T03:54:24.835Z,16.72
2018-12-11T03:55:25.390Z,16.78
2018-12-11T03:56:25.965Z,16.69
2018-12-11T03:57:26.541Z,16.71
2018-12-11T03:58:27.112Z,16.76
2018-12-11T03:59:27.687Z,16.74
2018-12-11T04:00:28.264Z,16.79
2018-12-11T04:01:28.890Z,16.81
2018-12-11T04:03:14.035Z,16.78
2018-12-11T04:04:14.606Z,16.72
2018-12-11T04:05:15.179Z,16.69
2018-12-11T04:06:15.836Z,16.71
2018-12-11T04:07:16.370Z,16.69
2018-12-11T04:08:16.997Z,16.66
2018-12-11T04:09:17.570Z,16.71
2018-12-11T04:10:18.147Z,16.75
2018-12-11T04:11:18.718Z,16.72
2018-12-11T04:12:19.292Z,16.69
2018-12-11T04:13:19.915Z,16.66
2018-12-11T04:14:20.494Z,16.68
2018-12-11T04:15:21.066Z,16.72
2018-12-11T04:16:21.685Z,16.74
2018-12-11T04:17:22.257Z,16.72
2018-12-11T04:18:22.834Z,16.79
2018-12-11T04:19:23.406Z,16.72
2018-12-11T04:20:24.031Z,16.74
2018-12-11T04:21:24.604Z,16.76
2018-12-11T04:22:25.228Z,16.69
2018-12-11T04:23:25.803Z,16.75
2018-12-11T04:25:10.891Z,16.69
2018-12-11T04:26:11.468Z,16.60
2018-12-11T04:27:12.044Z,16.72
2018-12-11T04:28:12.618Z,16.61
2018-12-11T04:29:13.188Z,16.61
2018-12-11T04:30:13.764Z,16.66
2018-12-11T04:31:14.336Z,16.61
2018-12-11T04:32:14.912Z,16.71
2018-12-11T04:33:15.535Z,16.60
2018-12-11T04:34:16.116Z,16.65
2018-12-11T04:35:16.720Z,16.68
2018-12-11T04:36:17.248Z,16.61
2018-12-11T04:37:17.822Z,16.65
2018-12-11T04:38:18.398Z,16.66
2018-12-11T04:39:19.063Z,16.61
2018-12-11T04:40:19.690Z,16.58
2018-12-11T04:41:20.265Z,16.69
2018-12-11T04:42:20.836Z,16.66
2018-12-11T04:43:21.412Z,16.61
2018-12-11T04:44:21.988Z,16.65
2018-12-11T04:45:22.560Z,16.60
2018-12-11T04:47:07.661Z,16.72
2018-12-11T04:48:08.264Z,16.60
2018-12-11T04:49:08.844Z,16.57
2018-12-11T04:50:09.468Z,16.58
2018-12-11T04:51:10.042Z,16.65
2018-12-11T04:52:10.616Z,16.61
2018-12-11T04:53:11.192Z,16.64
2018-12-11T04:54:11.767Z,16.65
2018-12-11T04:55:12.341Z,16.61
2018-12-11T04:56:12.915Z,16.64
2018-12-11T04:57:13.491Z,16.56
2018-12-11T04:58:14.115Z,16.58
2018-12-11T04:59:14.685Z,16.61
2018-12-11T05:00:15.310Z,16.58
2018-12-11T05:01:15.883Z,16.61
2018-12-11T05:02:16.460Z,16.66
2018-12-11T05:03:17.033Z,16.57
2018-12-11T05:04:17.607Z,16.58
2018-12-11T05:05:18.182Z,16.71
2018-12-11T05:06:18.759Z,16.72
2018-12-11T05:07:19.382Z,16.60
2018-12-11T05:09:04.478Z,16.65
2018-12-11T05:10:05.045Z,16.61
2018-12-11T05:11:05.620Z,16.65
2018-12-11T05:12:06.196Z,16.65
2018-12-11T05:13:06.768Z,16.60
2018-12-11T05:14:07.343Z,16.65
2018-12-11T05:15:07.966Z,16.68
2018-12-11T05:16:08.540Z,16.66
2018-12-11T05:17:09.112Z,16.57
2018-12-11T05:18:09.685Z,16.60
2018-12-11T05:19:10.259Z,16.56
2018-12-11T05:20:10.881Z,16.58
2018-12-11T05:21:11.507Z,16.60
2018-12-11T05:22:12.082Z,16.56
2018-12-11T05:23:12.697Z,16.50
2018-12-11T05:24:13.271Z,16.58
2018-12-11T05:25:13.845Z,16.58
2018-12-11T05:26:14.416Z,16.58
2018-12-11T05:27:14.991Z,16.57
2018-12-11T05:28:15.565Z,16.50
2018-12-11T05:29:16.188Z,16.60
2018-12-11T05:31:01.326Z,16.64
2018-12-11T05:32:01.902Z,16.60
2018-12-11T05:33:02.477Z,16.58
2018-12-11T05:34:03.052Z,16.56
2018-12-11T05:35:03.626Z,16.56
2018-12-11T05:36:04.200Z,16.56
2018-12-11T05:37:04.774Z,16.60
2018-12-11T05:38:05.349Z,16.64
2018-12-11T05:39:05.921Z,16.57
2018-12-11T05:40:06.496Z,16.56
2018-12-11T05:41:07.107Z,16.57
2018-12-11T05:42:07.731Z,16.58
2018-12-11T05:43:08.305Z,16.58
2018-12-11T05:44:08.878Z,16.50
2018-12-11T05:45:09.450Z,16.46
2018-12-11T05:46:10.025Z,16.49
2018-12-11T05:47:10.648Z,16.46
2018-12-11T05:48:11.269Z,16.51
2018-12-11T05:49:11.845Z,16.47
2018-12-11T05:50:12.418Z,16.50
2018-12-11T05:51:13.067Z,16.43
2018-12-11T05:52:58.124Z,16.60
2018-12-11T05:53:58.702Z,16.42
2018-12-11T05:54:59.276Z,16.49
2018-12-11T05:55:59.854Z,16.53
2018-12-11T05:57:00.468Z,16.60
2018-12-11T05:58:01.041Z,16.60
2018-12-11T05:59:01.614Z,16.46
2018-12-11T06:00:02.227Z,16.42
2018-12-11T06:01:02.811Z,16.46
2018-12-11T06:02:03.387Z,16.49
2018-12-11T06:03:04.058Z,16.42
2018-12-11T06:04:04.622Z,16.47
2018-12-11T06:05:05.198Z,16.47
2018-12-11T06:06:05.771Z,16.42
2018-12-11T06:07:06.345Z,16.43
2018-12-11T06:08:06.919Z,16.43
2018-12-11T06:09:07.495Z,16.42
2018-12-11T06:10:08.117Z,16.39
2018-12-11T06:11:08.690Z,16.42
2018-12-11T06:12:09.264Z,16.46
2018-12-11T06:13:09.838Z,16.41
2018-12-11T06:14:54.926Z,16.43
2018-12-11T06:15:55.504Z,16.46
2018-12-11T06:16:56.077Z,16.41
2018-12-11T06:18:58.209Z,16.35
2018-12-11T06:20:12.539Z,16.32
2018-12-11T06:21:13.313Z,16.38
2018-12-11T06:22:13.889Z,16.33
2018-12-11T06:23:14.514Z,16.35
2018-12-11T06:24:15.088Z,16.36
2018-12-11T06:25:15.660Z,16.35
2018-12-11T06:26:16.235Z,16.32
2018-12-11T06:27:16.809Z,16.33
2018-12-11T06:29:18.992Z,16.35
2018-12-11T06:30:24.610Z,16.29
2018-12-11T06:31:25.274Z,16.32
2018-12-11T06:32:25.984Z,16.33
2018-12-11T06:33:26.549Z,16.28
2018-12-11T06:34:27.218Z,16.31
2018-12-11T06:35:27.786Z,16.35
2018-12-11T06:36:28.354Z,16.24
2018-12-11T06:38:04.458Z,16.32
2018-12-11T06:39:30.803Z,16.24
2018-12-11T06:40:31.370Z,16.23
2018-12-11T06:41:31.940Z,16.32
2018-12-11T06:42:32.507Z,16.15
2018-12-11T06:43:33.121Z,16.23
2018-12-11T06:44:33.683Z,16.21
2018-12-11T06:45:34.255Z,16.17
2018-12-11T06:46:48.584Z,16.29
2018-12-11T06:54:09.697Z,16.24
2018-12-11T06:55:10.275Z,16.32
2018-12-11T06:56:10.850Z,16.24
2018-12-11T06:58:30.753Z,16.35
2018-12-11T06:59:31.369Z,16.23
2018-12-11T07:00:32.013Z,16.28
2018-12-11T07:01:32.535Z,16.26
2018-12-11T07:02:33.099Z,16.24
2018-12-11T07:03:33.665Z,16.29
2018-12-11T07:04:52.002Z,16.24
2018-12-11T07:05:52.569Z,16.26
2018-12-11T07:07:06.901Z,16.28
2018-12-11T07:10:42.279Z,16.16
2018-12-11T07:11:42.852Z,16.20
2018-12-11T07:12:43.426Z,16.17
2018-12-11T07:13:44.053Z,16.15
2018-12-11T07:16:08.009Z,16.24
2018-12-11T07:18:27.910Z,16.21
2018-12-11T07:21:51.740Z,16.12
2018-12-11T07:23:36.830Z,16.26
2018-12-11T07:24:37.405Z,16.17
2018-12-11T07:25:37.980Z,16.17
2018-12-11T07:26:38.555Z,16.17
2018-12-11T07:27:39.128Z,16.13
2018-12-11T07:28:39.703Z,16.13
2018-12-11T07:29:40.331Z,16.15
2018-12-11T07:30:40.902Z,16.12
2018-12-11T07:31:41.524Z,16.16
2018-12-11T07:32:42.099Z,16.15
2018-12-11T07:33:42.725Z,16.13
2018-12-11T07:34:43.298Z,16.12
2018-12-11T07:35:43.872Z,16.20
2018-12-11T07:36:44.445Z,16.08
2018-12-11T07:37:45.018Z,16.15
2018-12-11T07:38:45.592Z,16.16
2018-12-11T07:39:46.165Z,16.15
2018-12-11T07:40:46.737Z,16.21
2018-12-11T07:41:47.314Z,16.23
2018-12-11T07:42:47.886Z,16.15
2018-12-11T07:43:48.460Z,16.29
2018-12-11T07:45:33.597Z,16.24
2018-12-11T07:46:34.173Z,16.31
2018-12-11T07:47:34.748Z,16.20
2018-12-11T07:48:35.321Z,16.09
2018-12-11T07:49:35.892Z,16.28
2018-12-11T07:50:36.467Z,16.15
2018-12-11T07:51:37.038Z,16.16
2018-12-11T07:52:37.614Z,16.26
2018-12-11T07:53:38.186Z,16.21
2018-12-11T07:54:38.810Z,16.20
2018-12-11T07:55:39.385Z,16.21
2018-12-11T07:56:39.965Z,16.20
2018-12-11T07:57:40.534Z,16.16
2018-12-11T07:58:41.107Z,16.28
2018-12-11T07:59:41.683Z,16.26
2018-12-11T08:00:42.306Z,16.33
2018-12-11T08:01:42.879Z,16.32
2018-12-11T08:02:43.501Z,16.35
2018-12-11T08:03:44.075Z,16.32
2018-12-11T08:04:44.652Z,16.17
2018-12-11T08:07:35.238Z,16.32
2018-12-11T08:08:35.852Z,16.41
2018-12-11T08:09:36.427Z,16.50
2018-12-11T08:10:36.999Z,16.46
2018-12-11T08:11:37.578Z,16.38
2018-12-11T08:12:38.189Z,16.21
2018-12-11T08:14:04.589Z,16.13
2018-12-11T08:15:05.164Z,16.21
2018-12-11T08:16:05.738Z,16.17
2018-12-11T08:17:06.311Z,16.16
2018-12-11T08:18:06.978Z,16.12
2018-12-11T08:19:07.551Z,16.21
2018-12-11T08:20:08.135Z,16.15
2018-12-11T08:28:33.280Z,16.13
2018-12-11T08:30:50.280Z,16.21
2018-12-11T08:34:15.853Z,16.20
2018-12-11T08:36:00.990Z,16.20
2018-12-11T08:37:46.079Z,16.05
2018-12-11T08:40:05.988Z,16.16
2018-12-11T08:41:06.565Z,16.13
2018-12-11T08:42:07.186Z,16.15
2018-12-11T08:43:07.760Z,16.15
2018-12-11T08:44:08.335Z,16.05
2018-12-11T08:45:09.011Z,16.16
2018-12-11T08:46:09.580Z,16.13
2018-12-11T08:47:10.155Z,16.13
2018-12-11T08:48:10.729Z,16.13
2018-12-11T08:49:11.307Z,16.16
2018-12-11T08:50:11.879Z,16.15
2018-12-11T08:51:12.452Z,16.15
2018-12-11T08:52:13.090Z,16.16
2018-12-11T08:53:13.664Z,16.16
2018-12-11T08:54:14.236Z,16.10
2018-12-11T08:55:14.812Z,16.21
2018-12-11T08:56:15.386Z,16.09
2018-12-11T08:58:39.281Z,16.13
2018-12-11T09:00:05.624Z,16.20
2018-12-11T09:01:06.240Z,16.20
2018-12-11T09:02:28.578Z,16.17
2018-12-11T09:05:23.326Z,16.23
2018-12-11T09:06:23.950Z,16.29
2018-12-11T09:07:24.524Z,16.31
2018-12-11T09:11:11.081Z,16.33
2018-12-11T09:12:11.694Z,16.42
2018-12-11T09:13:12.267Z,16.29
2018-12-11T09:14:12.842Z,16.41
2018-12-11T09:15:13.415Z,16.36
2018-12-11T09:16:13.989Z,16.36
2018-12-11T09:17:14.565Z,16.35
2018-12-11T09:18:15.141Z,16.33
2018-12-11T09:19:15.762Z,16.38
2018-12-11T09:20:16.341Z,16.33
2018-12-11T09:21:16.909Z,16.39
2018-12-11T09:31:14.591Z,16.33
2018-12-11T09:32:15.196Z,16.38
2018-12-11T09:34:39.120Z,16.36
2018-12-11T09:36:01.507Z,16.39
2018-12-11T09:37:35.867Z,16.41
2018-12-11T09:38:36.441Z,16.41
2018-12-11T09:39:37.018Z,16.33
2018-12-11T09:40:37.591Z,16.32
2018-12-11T09:41:38.165Z,16.35
2018-12-11T09:42:38.738Z,16.32
2018-12-11T09:43:39.312Z,16.38
2018-12-11T09:44:39.884Z,16.41
2018-12-11T09:45:40.457Z,16.35
2018-12-11T09:46:41.031Z,16.41
2018-12-11T09:47:41.655Z,16.43
2018-12-11T09:48:42.228Z,16.41
2018-12-11T09:49:42.804Z,16.43
2018-12-11T09:50:43.378Z,16.50
2018-12-11T09:51:43.952Z,16.42
2018-12-11T09:52:44.528Z,16.42
2018-12-11T09:53:45.154Z,16.43
2018-12-11T09:54:45.767Z,16.42
2018-12-11T09:55:46.340Z,16.60
2018-12-11T09:56:46.959Z,16.56
2018-12-11T09:57:47.582Z,16.57
2018-12-11T09:59:32.670Z,16.58
2018-12-11T10:00:33.339Z,16.54
2018-12-11T10:01:33.882Z,16.65
2018-12-11T10:02:34.456Z,16.64
2018-12-11T10:03:35.041Z,16.61
2018-12-11T10:04:35.604Z,16.64
2018-12-11T10:05:36.178Z,16.66
2018-12-11T10:06:36.750Z,16.65
2018-12-11T10:07:37.325Z,16.66
2018-12-11T10:08:37.948Z,16.64
2018-12-11T10:11:37.889Z,16.66
2018-12-11T10:12:52.266Z,16.65
2018-12-11T10:18:32.866Z,16.75
2018-12-11T10:19:33.482Z,16.74
2018-12-11T10:20:34.055Z,16.74
2018-12-11T10:21:34.628Z,16.83
2018-12-11T10:22:35.199Z,16.71
2018-12-11T10:23:35.773Z,16.72
2018-12-11T10:24:36.346Z,16.71
2018-12-11T10:25:36.920Z,16.81
2018-12-11T10:26:37.514Z,16.84
2018-12-11T10:27:38.158Z,16.78
2018-12-11T10:28:38.828Z,16.79
2018-12-11T10:29:39.404Z,16.83
2018-12-11T10:30:39.975Z,16.89
2018-12-11T10:31:40.548Z,16.84
2018-12-11T10:32:41.124Z,16.81
2018-12-11T10:33:41.738Z,16.83
2018-12-11T10:34:42.312Z,16.79
2018-12-11T10:35:42.886Z,16.81
2018-12-11T10:36:43.461Z,16.78
2018-12-11T10:37:44.037Z,16.81
2018-12-11T10:39:29.122Z,16.89
2018-12-11T10:40:29.748Z,16.94
2018-12-11T10:41:30.321Z,16.84
2018-12-11T10:42:30.894Z,16.81
2018-12-11T10:43:31.467Z,16.89
2018-12-11T10:44:32.091Z,16.87
2018-12-11T10:45:32.667Z,16.89
2018-12-11T10:46:33.888Z,16.81
2018-12-11T10:47:39.542Z,16.90
2018-12-11T10:48:40.121Z,16.90
2018-12-11T10:49:40.740Z,16.86
2018-12-11T10:50:41.314Z,16.91
2018-12-11T10:51:41.887Z,16.90
2018-12-11T10:52:42.464Z,16.99
2018-12-11T10:53:43.037Z,16.97
2018-12-11T10:54:43.615Z,16.94
2018-12-11T10:55:44.235Z,16.89
2018-12-11T10:56:44.806Z,16.87
2018-12-11T10:57:45.381Z,16.90
2018-12-11T10:58:45.962Z,16.90
2018-12-11T10:59:46.529Z,17.01
2018-12-11T11:01:31.816Z,16.97
2018-12-11T11:02:32.392Z,16.91
2018-12-11T11:03:32.965Z,16.89
2018-12-11T11:04:33.542Z,16.87
2018-12-11T11:05:34.113Z,16.97
2018-12-11T11:06:34.686Z,16.97
2018-12-11T11:07:35.310Z,16.99
2018-12-11T11:08:35.884Z,16.99
2018-12-11T11:09:36.458Z,17.02
2018-12-11T11:10:37.041Z,16.97
2018-12-11T11:11:37.616Z,17.09
2018-12-11T11:12:38.201Z,17.01
2018-12-11T11:13:38.782Z,17.04
2018-12-11T11:14:39.360Z,17.06
2018-12-11T11:15:39.929Z,17.11
2018-12-11T11:16:40.548Z,17.11
2018-12-11T11:17:41.122Z,17.08
2018-12-11T11:18:41.694Z,17.09
2018-12-11T11:19:42.269Z,17.12
2018-12-11T11:20:42.993Z,17.06
2018-12-11T11:21:43.720Z,17.11
2018-12-11T11:23:28.803Z,17.04
2018-12-11T11:24:29.380Z,17.12
2018-12-11T11:25:29.954Z,17.05
2018-12-11T11:26:30.580Z,17.04
2018-12-11T11:27:31.153Z,17.06
2018-12-11T11:28:31.725Z,17.11
2018-12-11T11:29:32.299Z,17.11
2018-12-11T11:30:32.871Z,17.09
2018-12-11T11:31:33.444Z,17.06
2018-12-11T11:32:34.127Z,17.05
2018-12-11T11:33:34.699Z,17.22
2018-12-11T11:34:35.272Z,17.04
2018-12-11T11:35:35.845Z,17.09
2018-12-11T11:36:36.422Z,17.12
2018-12-11T11:37:37.043Z,17.16
2018-12-11T11:38:37.670Z,17.16
2018-12-11T11:39:38.246Z,17.20
2018-12-11T11:40:38.823Z,17.04
2018-12-11T11:41:39.393Z,17.08
2018-12-11T11:42:39.965Z,17.06
2018-12-11T11:43:40.539Z,17.14
2018-12-11T11:45:27.023Z,17.15
2018-12-11T11:46:27.245Z,17.24
2018-12-11T11:47:27.862Z,17.15
2018-12-11T11:48:28.438Z,17.15
2018-12-11T11:49:29.012Z,17.16
2018-12-11T11:50:29.585Z,17.16
2018-12-11T11:51:30.159Z,17.16
2018-12-11T11:52:30.732Z,17.12
2018-12-11T11:53:31.307Z,17.24
2018-12-11T11:54:31.880Z,17.19
2018-12-11T11:55:32.506Z,17.15
2018-12-11T11:56:33.079Z,17.08
2018-12-11T11:57:33.705Z,17.05
2018-12-11T11:58:34.280Z,17.05
2018-12-11T11:59:34.854Z,17.06
2018-12-11T12:00:35.428Z,17.15
2018-12-11T12:01:36.000Z,17.09
2018-12-11T12:02:36.575Z,17.19
2018-12-11T12:03:37.149Z,17.08
2018-12-11T12:04:37.726Z,17.14
2018-12-11T12:05:38.299Z,17.05
2018-12-11T12:07:23.439Z,17.14
2018-12-11T12:08:24.014Z,17.16
2018-12-11T12:09:24.589Z,17.16
2018-12-11T12:10:25.165Z,17.16
2018-12-11T12:11:25.803Z,17.15
2018-12-11T12:12:26.406Z,17.12
2018-12-11T12:13:26.979Z,17.19
2018-12-11T12:14:27.552Z,17.15
2018-12-11T12:15:28.128Z,17.24
2018-12-11T12:16:28.699Z,17.24
2018-12-11T12:17:29.273Z,17.16
2018-12-11T12:18:29.896Z,17.19
2018-12-11T12:19:30.472Z,17.26
2018-12-11T12:20:31.046Z,17.20
2018-12-11T12:21:31.623Z,17.19
2018-12-11T12:22:32.250Z,17.12
2018-12-11T12:23:32.827Z,17.20
2018-12-11T12:24:33.401Z,17.19
2018-12-11T12:25:33.976Z,17.20
2018-12-11T12:26:34.554Z,17.15
2018-12-11T12:27:35.129Z,17.19
2018-12-11T12:29:20.218Z,17.22
2018-12-11T12:30:25.946Z,17.15
2018-12-11T12:31:26.619Z,17.20
2018-12-11T12:32:27.194Z,17.19
2018-12-11T12:33:27.867Z,17.19
2018-12-11T12:34:28.602Z,17.22
2018-12-11T12:35:29.132Z,17.06
2018-12-11T12:36:29.705Z,17.12
2018-12-11T12:37:30.277Z,17.22
2018-12-11T12:38:30.854Z,17.20
2018-12-11T12:39:31.428Z,17.29
2018-12-11T12:40:32.001Z,17.20
2018-12-11T12:41:32.576Z,17.08
2018-12-11T12:42:33.152Z,17.22
2018-12-11T12:43:33.728Z,17.14
2018-12-11T12:44:34.303Z,17.15
2018-12-11T12:45:34.880Z,17.22
2018-12-11T12:46:35.453Z,17.27
2018-12-11T12:47:36.031Z,17.22
2018-12-11T12:48:36.656Z,17.20
2018-12-11T12:49:37.231Z,17.08
2018-12-11T12:51:22.322Z,17.20
2018-12-11T12:52:23.015Z,17.15
2018-12-11T12:53:23.590Z,17.26
2018-12-11T12:54:24.165Z,17.23
2018-12-11T12:55:24.739Z,17.08
2018-12-11T12:56:25.364Z,17.09
2018-12-11T12:57:25.940Z,17.12
2018-12-11T12:58:26.516Z,17.09
2018-12-11T12:59:27.090Z,17.20
2018-12-11T13:00:27.666Z,17.20
2018-12-11T13:01:28.240Z,17.15
2018-12-11T13:02:28.814Z,17.24
2018-12-11T13:03:29.390Z,17.27
2018-12-11T13:04:30.007Z,17.22
2018-12-11T13:05:30.630Z,17.11
2018-12-11T13:06:31.206Z,17.15
2018-12-11T13:07:31.782Z,17.16
2018-12-11T13:08:32.356Z,17.15
2018-12-11T13:09:32.984Z,17.20
2018-12-11T13:10:33.804Z,17.19
2018-12-11T13:11:34.353Z,17.15
2018-12-11T13:13:19.444Z,17.15
2018-12-11T13:14:20.023Z,17.14
2018-12-11T13:15:20.647Z,17.19
2018-12-11T13:16:21.220Z,17.19
2018-12-11T13:17:21.794Z,17.11
2018-12-11T13:18:22.368Z,17.15
2018-12-11T13:19:22.942Z,17.16
2018-12-11T13:20:23.514Z,17.19
2018-12-11T13:21:24.091Z,17.15
2018-12-11T13:22:24.705Z,17.26
2018-12-11T13:23:25.279Z,17.11
2018-12-11T13:24:25.854Z,17.23
2018-12-11T13:25:26.435Z,17.22
2018-12-11T13:26:27.057Z,17.15
2018-12-11T13:27:27.631Z,17.24
2018-12-11T13:28:28.207Z,17.22
2018-12-11T13:29:28.785Z,17.22
2018-12-11T13:30:29.406Z,17.20
2018-12-11T13:31:29.983Z,17.15
2018-12-11T13:32:30.609Z,17.12
2018-12-11T13:33:31.185Z,17.20
2018-12-11T13:35:16.274Z,17.12
2018-12-11T13:36:16.852Z,17.26
2018-12-11T13:37:17.421Z,17.14
2018-12-11T13:38:17.999Z,17.19
2018-12-11T13:39:18.617Z,17.26
2018-12-11T13:40:19.193Z,17.22
2018-12-11T13:41:19.768Z,17.29
2018-12-11T13:45:14.867Z,17.29
2018-12-11T13:46:15.433Z,17.38
2018-12-11T13:47:16.066Z,17.34
2018-12-11T13:48:23.268Z,17.36
2018-12-11T13:49:18.297Z,17.27
2018-12-11T13:52:59.505Z,17.34
2018-12-11T13:54:00.082Z,17.27
2018-12-11T13:55:00.660Z,17.33
2018-12-11T13:56:01.236Z,17.26
2018-12-11T13:57:01.811Z,17.30
2018-12-11T13:58:02.387Z,17.30
2018-12-11T13:59:02.966Z,17.29
2018-12-11T14:00:03.536Z,17.30
2018-12-11T14:01:04.110Z,17.31
2018-12-11T14:02:04.687Z,17.31
2018-12-11T14:03:05.262Z,17.31
2018-12-11T14:04:05.836Z,17.29
2018-12-11T14:05:06.411Z,17.42
2018-12-11T14:06:06.987Z,17.38
2018-12-11T14:07:07.562Z,17.45
2018-12-11T14:08:08.134Z,17.42
2018-12-11T14:09:08.759Z,17.42
2018-12-11T14:10:09.383Z,17.42
2018-12-11T14:11:09.959Z,17.41
2018-12-11T14:12:10.584Z,17.44
2018-12-11T14:13:11.162Z,17.42
2018-12-11T14:14:56.251Z,17.42
2018-12-11T14:15:56.829Z,17.45
2018-12-11T14:16:57.404Z,17.31
2018-12-11T14:17:57.983Z,17.41
2018-12-11T14:18:58.556Z,17.41
2018-12-11T14:19:59.134Z,17.44
2018-12-11T14:20:59.708Z,17.45
2018-12-11T14:22:00.281Z,17.33
2018-12-11T14:23:00.859Z,17.44
2018-12-11T14:24:01.475Z,17.45
2018-12-11T14:25:02.098Z,17.39
2018-12-11T14:26:02.674Z,17.48
2018-12-11T14:27:03.256Z,17.42
2018-12-11T14:28:03.876Z,17.48
2018-12-11T14:29:04.451Z,17.46